sensor_id;sensor_type;location;lat;lon;timestamp;P1;durP1;ratioP1;P2;durP2;ratioP2
10687;SDS011;5392;42.688;23.298;2024-03-07T00:02:20;28.00;;;13.32;;
10687;SDS011;5392;42.688;23.298;2024-03-07T00:04:45;33.55;;;13.75;;
10687;SDS011;5392;42.688;23.298;2024-03-07T00:07:11;30.52;;;12.95;;
10687;SDS011;5392;42.688;23.298;2024-03-07T00:09:37;31.88;;;13.70;;
10687;SDS011;5392;42.688;23.298;2024-03-07T00:12:03;30.13;;;14.25;;
10687;SDS011;5392;42.688;23.298;2024-03-07T00:14:29;25.42;;;11.80;;
10687;SDS011;5392;42.688;23.298;2024-03-07T00:16:58;33.30;;;16.05;;
10687;SDS011;5392;42.688;23.298;2024-03-07T00:19:26;32.95;;;15.02;;
10687;SDS011;5392;42.688;23.298;2024-03-07T00:21:52;38.63;;;17.08;;
10687;SDS011;5392;42.688;23.298;2024-03-07T00:24:19;39.13;;;16.10;;
10687;SDS011;5392;42.688;23.298;2024-03-07T00:26:48;37.03;;;16.90;;
10687;SDS011;5392;42.688;23.298;2024-03-07T00:29:19;33.15;;;14.70;;
10687;SDS011;5392;42.688;23.298;2024-03-07T00:31:45;32.08;;;13.73;;
10687;SDS011;5392;42.688;23.298;2024-03-07T00:34:12;31.95;;;14.73;;
10687;SDS011;5392;42.688;23.298;2024-03-07T00:36:39;32.17;;;14.82;;
10687;SDS011;5392;42.688;23.298;2024-03-07T00:39:05;30.73;;;13.27;;
10687;SDS011;5392;42.688;23.298;2024-03-07T00:41:33;32.72;;;13.93;;
10687;SDS011;5392;42.688;23.298;2024-03-07T00:43:59;29.60;;;12.32;;
10687;SDS011;5392;42.688;23.298;2024-03-07T00:46:24;31.50;;;12.68;;
10687;SDS011;5392;42.688;23.298;2024-03-07T00:48:50;29.27;;;13.77;;
10687;SDS011;5392;42.688;23.298;2024-03-07T00:51:15;33.55;;;14.68;;
10687;SDS011;5392;42.688;23.298;2024-03-07T00:53:41;31.30;;;13.77;;
10687;SDS011;5392;42.688;23.298;2024-03-07T00:56:06;34.08;;;14.70;;
10687;SDS011;5392;42.688;23.298;2024-03-07T00:58:32;34.78;;;14.25;;
10687;SDS011;5392;42.688;23.298;2024-03-07T01:00:57;34.08;;;14.80;;
10687;SDS011;5392;42.688;23.298;2024-03-07T01:03:23;32.85;;;14.13;;
10687;SDS011;5392;42.688;23.298;2024-03-07T01:05:49;31.00;;;13.98;;
10687;SDS011;5392;42.688;23.298;2024-03-07T01:08:15;29.15;;;12.98;;
10687;SDS011;5392;42.688;23.298;2024-03-07T01:10:40;27.48;;;13.05;;
10687;SDS011;5392;42.688;23.298;2024-03-07T01:13:06;34.42;;;13.98;;
10687;SDS011;5392;42.688;23.298;2024-03-07T01:15:34;30.20;;;13.05;;
10687;SDS011;5392;42.688;23.298;2024-03-07T01:17:59;28.50;;;13.00;;
10687;SDS011;5392;42.688;23.298;2024-03-07T01:20:25;32.75;;;13.82;;
10687;SDS011;5392;42.688;23.298;2024-03-07T01:22:51;28.40;;;12.98;;
10687;SDS011;5392;42.688;23.298;2024-03-07T01:25:17;29.85;;;12.40;;
10687;SDS011;5392;42.688;23.298;2024-03-07T01:27:43;31.67;;;13.52;;
10687;SDS011;5392;42.688;23.298;2024-03-07T01:30:09;29.92;;;12.68;;
10687;SDS011;5392;42.688;23.298;2024-03-07T01:32:35;27.38;;;12.38;;
10687;SDS011;5392;42.688;23.298;2024-03-07T01:35:01;24.75;;;11.85;;
10687;SDS011;5392;42.688;23.298;2024-03-07T01:37:26;30.90;;;12.95;;
10687;SDS011;5392;42.688;23.298;2024-03-07T01:39:52;30.67;;;12.77;;
10687;SDS011;5392;42.688;23.298;2024-03-07T01:42:25;27.88;;;12.75;;
10687;SDS011;5392;42.688;23.298;2024-03-07T01:44:51;30.83;;;14.18;;
10687;SDS011;5392;42.688;23.298;2024-03-07T01:47:17;26.80;;;12.18;;
10687;SDS011;5392;42.688;23.298;2024-03-07T01:49:42;26.80;;;12.18;;
10687;SDS011;5392;42.688;23.298;2024-03-07T01:52:08;25.17;;;12.20;;
10687;SDS011;5392;42.688;23.298;2024-03-07T01:54:36;23.83;;;10.77;;
10687;SDS011;5392;42.688;23.298;2024-03-07T01:57:02;22.58;;;11.07;;
10687;SDS011;5392;42.688;23.298;2024-03-07T01:59:30;25.38;;;10.27;;
10687;SDS011;5392;42.688;23.298;2024-03-07T02:01:58;22.58;;;10.60;;
10687;SDS011;5392;42.688;23.298;2024-03-07T02:04:24;22.48;;;10.70;;
10687;SDS011;5392;42.688;23.298;2024-03-07T02:06:50;21.98;;;10.18;;
10687;SDS011;5392;42.688;23.298;2024-03-07T02:09:18;21.42;;;9.95;;
10687;SDS011;5392;42.688;23.298;2024-03-07T02:14:12;20.88;;;9.57;;
10687;SDS011;5392;42.688;23.298;2024-03-07T02:16:37;23.38;;;10.18;;
10687;SDS011;5392;42.688;23.298;2024-03-07T02:19:04;22.25;;;10.85;;
10687;SDS011;5392;42.688;23.298;2024-03-07T02:21:31;27.92;;;13.15;;
10687;SDS011;5392;42.688;23.298;2024-03-07T02:26:23;25.93;;;11.97;;
10687;SDS011;5392;42.688;23.298;2024-03-07T02:28:48;30.35;;;14.05;;
10687;SDS011;5392;42.688;23.298;2024-03-07T02:31:14;29.40;;;13.10;;
10687;SDS011;5392;42.688;23.298;2024-03-07T02:33:39;26.92;;;11.00;;
10687;SDS011;5392;42.688;23.298;2024-03-07T02:36:06;23.55;;;10.52;;
10687;SDS011;5392;42.688;23.298;2024-03-07T02:38:32;18.10;;;8.73;;
10687;SDS011;5392;42.688;23.298;2024-03-07T02:40:58;14.63;;;6.63;;
10687;SDS011;5392;42.688;23.298;2024-03-07T02:43:24;11.02;;;5.32;;
10687;SDS011;5392;42.688;23.298;2024-03-07T02:45:49;6.78;;;3.97;;
10687;SDS011;5392;42.688;23.298;2024-03-07T02:48:15;5.45;;;3.63;;
10687;SDS011;5392;42.688;23.298;2024-03-07T02:50:43;5.63;;;3.63;;
10687;SDS011;5392;42.688;23.298;2024-03-07T02:53:08;5.32;;;2.63;;
10687;SDS011;5392;42.688;23.298;2024-03-07T02:55:34;5.35;;;2.58;;
10687;SDS011;5392;42.688;23.298;2024-03-07T02:57:59;2.63;;;1.90;;
10687;SDS011;5392;42.688;23.298;2024-03-07T03:00:25;2.47;;;1.67;;
10687;SDS011;5392;42.688;23.298;2024-03-07T03:02:57;4.55;;;2.50;;
10687;SDS011;5392;42.688;23.298;2024-03-07T03:05:23;1.83;;;1.40;;
10687;SDS011;5392;42.688;23.298;2024-03-07T03:07:49;2.70;;;1.65;;
10687;SDS011;5392;42.688;23.298;2024-03-07T03:10:19;1.65;;;1.38;;
10687;SDS011;5392;42.688;23.298;2024-03-07T03:12:54;1.75;;;1.23;;
10687;SDS011;5392;42.688;23.298;2024-03-07T03:15:22;1.42;;;1.23;;
10687;SDS011;5392;42.688;23.298;2024-03-07T03:17:48;2.92;;;2.03;;
10687;SDS011;5392;42.688;23.298;2024-03-07T03:20:15;3.40;;;1.85;;
10687;SDS011;5392;42.688;23.298;2024-03-07T03:22:50;2.75;;;2.10;;
10687;SDS011;5392;42.688;23.298;2024-03-07T03:25:17;4.07;;;2.58;;
10687;SDS011;5392;42.688;23.298;2024-03-07T03:27:43;5.05;;;3.13;;
10687;SDS011;5392;42.688;23.298;2024-03-07T03:30:09;10.40;;;5.82;;
10687;SDS011;5392;42.688;23.298;2024-03-07T03:32:38;14.52;;;6.05;;
10687;SDS011;5392;42.688;23.298;2024-03-07T03:35:04;12.18;;;6.10;;
10687;SDS011;5392;42.688;23.298;2024-03-07T03:37:30;14.25;;;5.97;;
10687;SDS011;5392;42.688;23.298;2024-03-07T03:39:56;15.07;;;6.05;;
10687;SDS011;5392;42.688;23.298;2024-03-07T03:42:21;7.78;;;5.13;;
10687;SDS011;5392;42.688;23.298;2024-03-07T03:44:47;12.95;;;6.47;;
10687;SDS011;5392;42.688;23.298;2024-03-07T03:47:13;11.20;;;5.45;;
10687;SDS011;5392;42.688;23.298;2024-03-07T03:49:39;9.38;;;5.15;;
10687;SDS011;5392;42.688;23.298;2024-03-07T03:52:04;9.05;;;4.30;;
10687;SDS011;5392;42.688;23.298;2024-03-07T03:54:30;6.63;;;3.42;;
10687;SDS011;5392;42.688;23.298;2024-03-07T03:56:55;5.35;;;2.65;;
10687;SDS011;5392;42.688;23.298;2024-03-07T03:59:21;5.25;;;2.88;;
10687;SDS011;5392;42.688;23.298;2024-03-07T04:01:46;3.05;;;2.40;;
10687;SDS011;5392;42.688;23.298;2024-03-07T04:04:13;2.20;;;1.98;;
10687;SDS011;5392;42.688;23.298;2024-03-07T04:06:40;3.92;;;2.55;;
10687;SDS011;5392;42.688;23.298;2024-03-07T04:09:05;4.32;;;2.78;;
10687;SDS011;5392;42.688;23.298;2024-03-07T04:11:31;4.78;;;3.03;;
10687;SDS011;5392;42.688;23.298;2024-03-07T04:13:57;4.45;;;2.63;;
10687;SDS011;5392;42.688;23.298;2024-03-07T04:16:23;4.65;;;2.55;;
10687;SDS011;5392;42.688;23.298;2024-03-07T04:18:48;2.72;;;2.17;;
10687;SDS011;5392;42.688;23.298;2024-03-07T04:21:14;5.00;;;2.78;;
10687;SDS011;5392;42.688;23.298;2024-03-07T04:23:42;5.22;;;2.80;;
10687;SDS011;5392;42.688;23.298;2024-03-07T04:26:10;3.03;;;2.13;;
10687;SDS011;5392;42.688;23.298;2024-03-07T04:28:36;2.85;;;2.15;;
10687;SDS011;5392;42.688;23.298;2024-03-07T04:31:02;3.47;;;2.25;;
10687;SDS011;5392;42.688;23.298;2024-03-07T04:33:28;1.60;;;1.50;;
10687;SDS011;5392;42.688;23.298;2024-03-07T04:35:53;1.75;;;1.40;;
10687;SDS011;5392;42.688;23.298;2024-03-07T04:38:19;1.85;;;1.10;;
10687;SDS011;5392;42.688;23.298;2024-03-07T04:40:45;1.60;;;1.23;;
10687;SDS011;5392;42.688;23.298;2024-03-07T04:43:11;2.67;;;1.30;;
10687;SDS011;5392;42.688;23.298;2024-03-07T04:45:37;1.23;;;0.90;;
10687;SDS011;5392;42.688;23.298;2024-03-07T04:48:03;1.02;;;1.02;;
10687;SDS011;5392;42.688;23.298;2024-03-07T04:50:30;0.90;;;0.88;;
10687;SDS011;5392;42.688;23.298;2024-03-07T04:52:56;1.05;;;0.70;;
10687;SDS011;5392;42.688;23.298;2024-03-07T04:55:21;1.33;;;1.23;;
10687;SDS011;5392;42.688;23.298;2024-03-07T04:57:47;1.30;;;1.20;;
10687;SDS011;5392;42.688;23.298;2024-03-07T05:00:13;2.20;;;1.30;;
10687;SDS011;5392;42.688;23.298;2024-03-07T05:02:40;1.17;;;1.10;;
10687;SDS011;5392;42.688;23.298;2024-03-07T05:05:07;1.00;;;1.00;;
10687;SDS011;5392;42.688;23.298;2024-03-07T05:07:33;1.00;;;1.00;;
10687;SDS011;5392;42.688;23.298;2024-03-07T05:09:59;1.63;;;1.23;;
10687;SDS011;5392;42.688;23.298;2024-03-07T05:12:24;2.00;;;1.55;;
10687;SDS011;5392;42.688;23.298;2024-03-07T05:14:50;2.90;;;1.75;;
10687;SDS011;5392;42.688;23.298;2024-03-07T05:17:15;3.78;;;2.13;;
10687;SDS011;5392;42.688;23.298;2024-03-07T05:19:41;2.53;;;2.10;;
10687;SDS011;5392;42.688;23.298;2024-03-07T05:22:06;2.42;;;1.75;;
10687;SDS011;5392;42.688;23.298;2024-03-07T05:24:32;2.88;;;2.55;;
10687;SDS011;5392;42.688;23.298;2024-03-07T05:26:59;5.07;;;2.63;;
10687;SDS011;5392;42.688;23.298;2024-03-07T05:29:24;2.15;;;2.05;;
10687;SDS011;5392;42.688;23.298;2024-03-07T05:31:50;2.45;;;2.25;;
10687;SDS011;5392;42.688;23.298;2024-03-07T05:34:16;3.20;;;2.90;;
10687;SDS011;5392;42.688;23.298;2024-03-07T05:36:45;4.13;;;2.95;;
10687;SDS011;5392;42.688;23.298;2024-03-07T05:39:14;3.10;;;2.80;;
10687;SDS011;5392;42.688;23.298;2024-03-07T05:41:43;3.00;;;2.70;;
10687;SDS011;5392;42.688;23.298;2024-03-07T05:44:13;3.95;;;2.70;;
10687;SDS011;5392;42.688;23.298;2024-03-07T05:46:42;5.40;;;2.90;;
10687;SDS011;5392;42.688;23.298;2024-03-07T05:49:17;3.55;;;2.95;;
10687;SDS011;5392;42.688;23.298;2024-03-07T05:51:42;3.85;;;2.97;;
10687;SDS011;5392;42.688;23.298;2024-03-07T05:54:10;3.25;;;2.70;;
10687;SDS011;5392;42.688;23.298;2024-03-07T05:56:37;4.45;;;2.80;;
10687;SDS011;5392;42.688;23.298;2024-03-07T05:59:04;3.47;;;2.83;;
10687;SDS011;5392;42.688;23.298;2024-03-07T06:01:32;4.10;;;2.67;;
10687;SDS011;5392;42.688;23.298;2024-03-07T06:04:03;5.28;;;3.40;;
10687;SDS011;5392;42.688;23.298;2024-03-07T06:06:32;5.63;;;4.05;;
10687;SDS011;5392;42.688;23.298;2024-03-07T06:09:02;4.13;;;3.38;;
10687;SDS011;5392;42.688;23.298;2024-03-07T06:11:38;3.45;;;2.70;;
10687;SDS011;5392;42.688;23.298;2024-03-07T06:14:07;3.63;;;2.83;;
10687;SDS011;5392;42.688;23.298;2024-03-07T06:16:33;2.97;;;2.78;;
10687;SDS011;5392;42.688;23.298;2024-03-07T06:19:03;5.07;;;2.75;;
10687;SDS011;5392;42.688;23.298;2024-03-07T06:21:32;6.20;;;3.70;;
10687;SDS011;5392;42.688;23.298;2024-03-07T06:23:58;4.07;;;3.67;;
10687;SDS011;5392;42.688;23.298;2024-03-07T06:26:31;3.85;;;3.28;;
10687;SDS011;5392;42.688;23.298;2024-03-07T06:29:10;6.18;;;3.30;;
10687;SDS011;5392;42.688;23.298;2024-03-07T06:31:39;4.72;;;2.72;;
10687;SDS011;5392;42.688;23.298;2024-03-07T06:34:06;7.30;;;3.20;;
10687;SDS011;5392;42.688;23.298;2024-03-07T06:36:33;4.05;;;3.05;;
10687;SDS011;5392;42.688;23.298;2024-03-07T06:38:59;5.63;;;3.10;;
10687;SDS011;5392;42.688;23.298;2024-03-07T06:41:24;6.07;;;3.95;;
10687;SDS011;5392;42.688;23.298;2024-03-07T06:43:50;5.10;;;3.60;;
10687;SDS011;5392;42.688;23.298;2024-03-07T06:46:16;5.20;;;3.58;;
10687;SDS011;5392;42.688;23.298;2024-03-07T06:48:42;4.90;;;3.05;;
10687;SDS011;5392;42.688;23.298;2024-03-07T06:51:09;6.05;;;3.58;;
10687;SDS011;5392;42.688;23.298;2024-03-07T06:56:01;3.88;;;2.47;;
10687;SDS011;5392;42.688;23.298;2024-03-07T06:58:26;5.43;;;3.30;;
10687;SDS011;5392;42.688;23.298;2024-03-07T07:00:52;5.63;;;4.47;;
10687;SDS011;5392;42.688;23.298;2024-03-07T07:03:21;6.72;;;4.10;;
10687;SDS011;5392;42.688;23.298;2024-03-07T07:05:47;6.20;;;4.03;;
10687;SDS011;5392;42.688;23.298;2024-03-07T07:08:13;6.10;;;4.00;;
10687;SDS011;5392;42.688;23.298;2024-03-07T07:10:39;4.00;;;2.90;;
10687;SDS011;5392;42.688;23.298;2024-03-07T07:13:05;4.25;;;3.53;;
10687;SDS011;5392;42.688;23.298;2024-03-07T07:15:31;4.63;;;3.30;;
10687;SDS011;5392;42.688;23.298;2024-03-07T07:17:58;5.18;;;3.50;;
10687;SDS011;5392;42.688;23.298;2024-03-07T07:20:24;5.63;;;3.72;;
10687;SDS011;5392;42.688;23.298;2024-03-07T07:22:50;7.13;;;3.90;;
10687;SDS011;5392;42.688;23.298;2024-03-07T07:25:16;6.05;;;4.68;;
10687;SDS011;5392;42.688;23.298;2024-03-07T07:27:45;6.88;;;4.05;;
10687;SDS011;5392;42.688;23.298;2024-03-07T07:30:13;4.65;;;3.60;;
10687;SDS011;5392;42.688;23.298;2024-03-07T07:32:40;5.22;;;3.25;;
10687;SDS011;5392;42.688;23.298;2024-03-07T07:35:06;3.60;;;2.90;;
10687;SDS011;5392;42.688;23.298;2024-03-07T07:37:35;6.05;;;3.58;;
10687;SDS011;5392;42.688;23.298;2024-03-07T07:40:02;3.17;;;2.50;;
10687;SDS011;5392;42.688;23.298;2024-03-07T07:42:28;2.85;;;2.63;;
10687;SDS011;5392;42.688;23.298;2024-03-07T07:44:53;4.30;;;3.20;;
10687;SDS011;5392;42.688;23.298;2024-03-07T07:47:19;2.85;;;2.50;;
10687;SDS011;5392;42.688;23.298;2024-03-07T07:49:45;3.17;;;2.42;;
10687;SDS011;5392;42.688;23.298;2024-03-07T07:52:11;4.53;;;3.22;;
10687;SDS011;5392;42.688;23.298;2024-03-07T07:54:40;5.25;;;3.55;;
10687;SDS011;5392;42.688;23.298;2024-03-07T07:57:06;4.47;;;3.17;;
10687;SDS011;5392;42.688;23.298;2024-03-07T07:59:32;3.22;;;2.92;;
10687;SDS011;5392;42.688;23.298;2024-03-07T08:01:57;5.38;;;3.78;;
10687;SDS011;5392;42.688;23.298;2024-03-07T08:04:23;6.80;;;2.90;;
10687;SDS011;5392;42.688;23.298;2024-03-07T08:06:48;3.28;;;2.88;;
10687;SDS011;5392;42.688;23.298;2024-03-07T08:09:14;3.83;;;2.85;;
10687;SDS011;5392;42.688;23.298;2024-03-07T08:11:41;3.60;;;2.75;;
10687;SDS011;5392;42.688;23.298;2024-03-07T08:14:07;4.75;;;3.03;;
10687;SDS011;5392;42.688;23.298;2024-03-07T08:16:33;3.38;;;2.85;;
10687;SDS011;5392;42.688;23.298;2024-03-07T08:18:59;3.35;;;2.60;;
10687;SDS011;5392;42.688;23.298;2024-03-07T08:21:24;4.75;;;3.10;;
10687;SDS011;5392;42.688;23.298;2024-03-07T08:23:50;3.00;;;2.47;;
10687;SDS011;5392;42.688;23.298;2024-03-07T08:26:15;3.78;;;2.58;;
10687;SDS011;5392;42.688;23.298;2024-03-07T08:28:41;3.03;;;2.50;;
10687;SDS011;5392;42.688;23.298;2024-03-07T08:31:06;3.22;;;2.92;;
10687;SDS011;5392;42.688;23.298;2024-03-07T08:33:32;5.03;;;3.47;;
10687;SDS011;5392;42.688;23.298;2024-03-07T08:35:58;7.20;;;4.30;;
10687;SDS011;5392;42.688;23.298;2024-03-07T08:38:24;3.55;;;2.90;;
10687;SDS011;5392;42.688;23.298;2024-03-07T08:40:50;4.05;;;3.63;;
10687;SDS011;5392;42.688;23.298;2024-03-07T08:43:15;4.40;;;3.55;;
10687;SDS011;5392;42.688;23.298;2024-03-07T08:45:41;4.10;;;3.38;;
10687;SDS011;5392;42.688;23.298;2024-03-07T08:48:06;5.53;;;3.92;;
10687;SDS011;5392;42.688;23.298;2024-03-07T08:50:33;4.38;;;3.30;;
10687;SDS011;5392;42.688;23.298;2024-03-07T08:52:59;6.07;;;3.95;;
10687;SDS011;5392;42.688;23.298;2024-03-07T08:55:26;3.45;;;3.03;;
10687;SDS011;5392;42.688;23.298;2024-03-07T08:57:51;4.53;;;3.70;;
10687;SDS011;5392;42.688;23.298;2024-03-07T09:00:17;3.20;;;2.90;;
10687;SDS011;5392;42.688;23.298;2024-03-07T09:02:59;5.18;;;3.30;;
10687;SDS011;5392;42.688;23.298;2024-03-07T09:05:25;5.60;;;3.05;;
10687;SDS011;5392;42.688;23.298;2024-03-07T09:07:52;3.47;;;2.85;;
10687;SDS011;5392;42.688;23.298;2024-03-07T09:10:18;3.58;;;2.80;;
10687;SDS011;5392;42.688;23.298;2024-03-07T09:12:44;4.10;;;3.28;;
10687;SDS011;5392;42.688;23.298;2024-03-07T09:15:10;5.43;;;3.08;;
10687;SDS011;5392;42.688;23.298;2024-03-07T09:17:37;3.63;;;2.95;;
10687;SDS011;5392;42.688;23.298;2024-03-07T09:20:03;4.25;;;3.25;;
10687;SDS011;5392;42.688;23.298;2024-03-07T09:22:30;4.47;;;3.05;;
10687;SDS011;5392;42.688;23.298;2024-03-07T09:24:56;3.30;;;2.83;;
10687;SDS011;5392;42.688;23.298;2024-03-07T09:27:22;6.30;;;3.22;;
10687;SDS011;5392;42.688;23.298;2024-03-07T09:29:48;4.13;;;3.13;;
10687;SDS011;5392;42.688;23.298;2024-03-07T09:32:13;3.85;;;3.10;;
10687;SDS011;5392;42.688;23.298;2024-03-07T09:34:39;7.18;;;3.17;;
10687;SDS011;5392;42.688;23.298;2024-03-07T09:37:05;4.63;;;3.08;;
10687;SDS011;5392;42.688;23.298;2024-03-07T09:39:33;5.35;;;3.13;;
10687;SDS011;5392;42.688;23.298;2024-03-07T09:44:28;4.07;;;2.80;;
10687;SDS011;5392;42.688;23.298;2024-03-07T09:46:56;4.15;;;3.33;;
10687;SDS011;5392;42.688;23.298;2024-03-07T09:49:25;5.40;;;3.20;;
10687;SDS011;5392;42.688;23.298;2024-03-07T09:51:53;5.13;;;3.45;;
10687;SDS011;5392;42.688;23.298;2024-03-07T09:54:22;3.38;;;2.85;;
10687;SDS011;5392;42.688;23.298;2024-03-07T09:56:54;5.15;;;3.47;;
10687;SDS011;5392;42.688;23.298;2024-03-07T09:59:24;5.63;;;3.28;;
10687;SDS011;5392;42.688;23.298;2024-03-07T10:01:54;6.20;;;3.53;;
10687;SDS011;5392;42.688;23.298;2024-03-07T10:04:43;6.43;;;4.10;;
10687;SDS011;5392;42.688;23.298;2024-03-07T10:07:16;5.63;;;3.72;;
10687;SDS011;5392;42.688;23.298;2024-03-07T10:09:43;5.82;;;3.83;;
10687;SDS011;5392;42.688;23.298;2024-03-07T10:12:09;3.47;;;3.08;;
10687;SDS011;5392;42.688;23.298;2024-03-07T10:14:37;5.50;;;3.35;;
10687;SDS011;5392;42.688;23.298;2024-03-07T10:17:04;5.03;;;3.65;;
10687;SDS011;5392;42.688;23.298;2024-03-07T10:19:30;5.63;;;3.80;;
10687;SDS011;5392;42.688;23.298;2024-03-07T10:21:56;10.13;;;5.10;;
10687;SDS011;5392;42.688;23.298;2024-03-07T10:24:24;6.35;;;3.80;;
10687;SDS011;5392;42.688;23.298;2024-03-07T10:26:50;5.20;;;3.63;;
10687;SDS011;5392;42.688;23.298;2024-03-07T10:29:17;4.90;;;3.42;;
10687;SDS011;5392;42.688;23.298;2024-03-07T10:31:44;5.72;;;3.80;;
10687;SDS011;5392;42.688;23.298;2024-03-07T10:34:10;5.13;;;4.03;;
10687;SDS011;5392;42.688;23.298;2024-03-07T10:36:36;5.57;;;3.47;;
10687;SDS011;5392;42.688;23.298;2024-03-07T10:39:02;5.80;;;3.95;;
10687;SDS011;5392;42.688;23.298;2024-03-07T10:41:45;4.35;;;3.65;;
10687;SDS011;5392;42.688;23.298;2024-03-07T10:44:18;5.65;;;4.00;;
10687;SDS011;5392;42.688;23.298;2024-03-07T10:46:51;5.40;;;3.85;;
10687;SDS011;5392;42.688;23.298;2024-03-07T10:49:18;5.20;;;3.47;;
10687;SDS011;5392;42.688;23.298;2024-03-07T10:51:48;5.53;;;3.55;;
10687;SDS011;5392;42.688;23.298;2024-03-07T10:59:54;5.13;;;3.42;;
10687;SDS011;5392;42.688;23.298;2024-03-07T11:04:52;5.15;;;3.72;;
10687;SDS011;5392;42.688;23.298;2024-03-07T11:09:45;5.53;;;3.15;;
10687;SDS011;5392;42.688;23.298;2024-03-07T11:12:14;4.13;;;2.95;;
10687;SDS011;5392;42.688;23.298;2024-03-07T11:14:41;3.75;;;2.90;;
10687;SDS011;5392;42.688;23.298;2024-03-07T11:17:09;6.00;;;3.55;;
10687;SDS011;5392;42.688;23.298;2024-03-07T11:19:38;3.45;;;2.72;;
10687;SDS011;5392;42.688;23.298;2024-03-07T11:22:04;5.30;;;3.50;;
10687;SDS011;5392;42.688;23.298;2024-03-07T11:25:00;6.68;;;3.63;;
10687;SDS011;5392;42.688;23.298;2024-03-07T11:27:31;7.32;;;4.03;;
10687;SDS011;5392;42.688;23.298;2024-03-07T11:29:58;5.85;;;3.92;;
10687;SDS011;5392;42.688;23.298;2024-03-07T11:32:34;4.65;;;3.30;;
10687;SDS011;5392;42.688;23.298;2024-03-07T11:35:03;7.00;;;3.50;;
10687;SDS011;5392;42.688;23.298;2024-03-07T11:37:39;3.90;;;3.03;;
10687;SDS011;5392;42.688;23.298;2024-03-07T11:40:09;3.53;;;2.78;;
10687;SDS011;5392;42.688;23.298;2024-03-07T11:42:43;7.88;;;3.63;;
10687;SDS011;5392;42.688;23.298;2024-03-07T11:45:12;5.80;;;3.88;;
10687;SDS011;5392;42.688;23.298;2024-03-07T11:47:50;7.68;;;4.20;;
10687;SDS011;5392;42.688;23.298;2024-03-07T11:50:28;3.47;;;2.95;;
10687;SDS011;5392;42.688;23.298;2024-03-07T11:53:00;5.30;;;3.85;;
10687;SDS011;5392;42.688;23.298;2024-03-07T11:55:26;4.57;;;3.20;;
10687;SDS011;5392;42.688;23.298;2024-03-07T11:57:55;8.57;;;3.85;;
10687;SDS011;5392;42.688;23.298;2024-03-07T12:00:20;4.90;;;3.38;;
10687;SDS011;5392;42.688;23.298;2024-03-07T12:02:53;4.22;;;3.13;;
10687;SDS011;5392;42.688;23.298;2024-03-07T12:05:19;4.07;;;2.45;;
10687;SDS011;5392;42.688;23.298;2024-03-07T12:07:45;5.95;;;3.28;;
10687;SDS011;5392;42.688;23.298;2024-03-07T12:10:10;4.78;;;2.80;;
10687;SDS011;5392;42.688;23.298;2024-03-07T12:12:36;4.85;;;3.17;;
10687;SDS011;5392;42.688;23.298;2024-03-07T12:15:07;5.53;;;3.80;;
10687;SDS011;5392;42.688;23.298;2024-03-07T12:17:46;5.50;;;3.38;;
10687;SDS011;5392;42.688;23.298;2024-03-07T12:20:14;6.32;;;3.08;;
10687;SDS011;5392;42.688;23.298;2024-03-07T12:23:02;6.80;;;2.53;;
10687;SDS011;5392;42.688;23.298;2024-03-07T12:25:31;4.10;;;3.10;;
10687;SDS011;5392;42.688;23.298;2024-03-07T12:28:08;4.68;;;3.10;;
10687;SDS011;5392;42.688;23.298;2024-03-07T12:30:54;7.28;;;3.30;;
10687;SDS011;5392;42.688;23.298;2024-03-07T12:33:21;3.90;;;2.70;;
10687;SDS011;5392;42.688;23.298;2024-03-07T12:35:50;3.35;;;2.72;;
10687;SDS011;5392;42.688;23.298;2024-03-07T12:38:20;5.85;;;3.33;;
10687;SDS011;5392;42.688;23.298;2024-03-07T12:41:01;6.43;;;3.00;;
10687;SDS011;5392;42.688;23.298;2024-03-07T12:43:47;7.13;;;3.75;;
10687;SDS011;5392;42.688;23.298;2024-03-07T12:46:13;8.82;;;4.28;;
10687;SDS011;5392;42.688;23.298;2024-03-07T12:48:40;6.88;;;4.28;;
10687;SDS011;5392;42.688;23.298;2024-03-07T12:51:06;5.20;;;4.00;;
10687;SDS011;5392;42.688;23.298;2024-03-07T12:53:32;6.65;;;4.03;;
10687;SDS011;5392;42.688;23.298;2024-03-07T12:56:00;8.48;;;5.55;;
10687;SDS011;5392;42.688;23.298;2024-03-07T12:58:26;6.85;;;4.38;;
10687;SDS011;5392;42.688;23.298;2024-03-07T13:00:54;8.55;;;3.65;;
10687;SDS011;5392;42.688;23.298;2024-03-07T13:03:23;8.27;;;4.72;;
10687;SDS011;5392;42.688;23.298;2024-03-07T13:05:55;6.95;;;4.10;;
10687;SDS011;5392;42.688;23.298;2024-03-07T13:08:24;5.55;;;3.78;;
10687;SDS011;5392;42.688;23.298;2024-03-07T13:10:51;6.68;;;4.70;;
10687;SDS011;5392;42.688;23.298;2024-03-07T13:13:20;8.48;;;4.68;;
10687;SDS011;5392;42.688;23.298;2024-03-07T13:15:46;7.32;;;4.40;;
10687;SDS011;5392;42.688;23.298;2024-03-07T13:20:38;7.72;;;4.07;;
10687;SDS011;5392;42.688;23.298;2024-03-07T13:23:04;9.05;;;4.63;;
10687;SDS011;5392;42.688;23.298;2024-03-07T13:25:30;10.45;;;4.57;;
10687;SDS011;5392;42.688;23.298;2024-03-07T13:28:00;2.08;;;1.73;;
10687;SDS011;5392;42.688;23.298;2024-03-07T13:30:29;2.95;;;1.80;;
10687;SDS011;5392;42.688;23.298;2024-03-07T13:35:21;4.43;;;2.13;;
10687;SDS011;5392;42.688;23.298;2024-03-07T13:37:51;4.57;;;3.35;;
10687;SDS011;5392;42.688;23.298;2024-03-07T13:40:20;6.38;;;3.60;;
10687;SDS011;5392;42.688;23.298;2024-03-07T13:45:31;4.90;;;3.10;;
10687;SDS011;5392;42.688;23.298;2024-03-07T13:48:08;8.52;;;3.10;;
10687;SDS011;5392;42.688;23.298;2024-03-07T13:50:45;3.95;;;2.28;;
10687;SDS011;5392;42.688;23.298;2024-03-07T13:53:10;6.30;;;3.97;;
10687;SDS011;5392;42.688;23.298;2024-03-07T13:56:03;7.18;;;3.70;;
10687;SDS011;5392;42.688;23.298;2024-03-07T14:01:30;5.05;;;3.08;;
10687;SDS011;5392;42.688;23.298;2024-03-07T14:07:08;4.30;;;3.30;;
10687;SDS011;5392;42.688;23.298;2024-03-07T14:32:38;6.72;;;3.13;;
10687;SDS011;5392;42.688;23.298;2024-03-07T14:40:53;6.95;;;4.20;;
10687;SDS011;5392;42.688;23.298;2024-03-07T14:43:20;6.55;;;3.92;;
10687;SDS011;5392;42.688;23.298;2024-03-07T14:45:46;5.50;;;3.38;;
10687;SDS011;5392;42.688;23.298;2024-03-07T14:48:12;7.70;;;3.78;;
10687;SDS011;5392;42.688;23.298;2024-03-07T14:50:41;8.23;;;4.72;;
10687;SDS011;5392;42.688;23.298;2024-03-07T14:53:10;6.90;;;4.07;;
10687;SDS011;5392;42.688;23.298;2024-03-07T14:55:37;5.55;;;3.83;;
10687;SDS011;5392;42.688;23.298;2024-03-07T14:58:05;7.78;;;4.15;;
10687;SDS011;5392;42.688;23.298;2024-03-07T15:00:34;11.07;;;6.20;;
10687;SDS011;5392;42.688;23.298;2024-03-07T15:03:10;14.50;;;6.88;;
10687;SDS011;5392;42.688;23.298;2024-03-07T15:05:42;9.68;;;4.32;;
10687;SDS011;5392;42.688;23.298;2024-03-07T15:08:10;7.07;;;4.57;;
10687;SDS011;5392;42.688;23.298;2024-03-07T15:13:03;8.23;;;4.43;;
10687;SDS011;5392;42.688;23.298;2024-03-07T15:15:29;10.82;;;4.72;;
10687;SDS011;5392;42.688;23.298;2024-03-07T15:17:57;11.25;;;5.18;;
10687;SDS011;5392;42.688;23.298;2024-03-07T15:20:23;7.63;;;4.43;;
10687;SDS011;5392;42.688;23.298;2024-03-07T15:22:51;10.25;;;6.28;;
10687;SDS011;5392;42.688;23.298;2024-03-07T15:25:18;9.05;;;5.25;;
10687;SDS011;5392;42.688;23.298;2024-03-07T15:27:44;11.65;;;5.22;;
10687;SDS011;5392;42.688;23.298;2024-03-07T15:30:17;12.25;;;5.65;;
10687;SDS011;5392;42.688;23.298;2024-03-07T15:32:45;8.63;;;4.75;;
10687;SDS011;5392;42.688;23.298;2024-03-07T15:35:11;14.02;;;5.35;;
10687;SDS011;5392;42.688;23.298;2024-03-07T15:37:41;6.70;;;4.15;;
10687;SDS011;5392;42.688;23.298;2024-03-07T15:40:09;12.77;;;5.90;;
10687;SDS011;5392;42.688;23.298;2024-03-07T15:42:39;9.20;;;5.65;;
10687;SDS011;5392;42.688;23.298;2024-03-07T15:45:12;8.70;;;5.05;;
10687;SDS011;5392;42.688;23.298;2024-03-07T15:47:44;14.57;;;5.43;;
10687;SDS011;5392;42.688;23.298;2024-03-07T15:50:17;10.40;;;4.90;;
10687;SDS011;5392;42.688;23.298;2024-03-07T15:52:49;11.13;;;5.47;;